Time;durP1;ratioP1;P1;durP2;ratioP2;P2;SDS_P1;SDS_P2;PMS_P1;PMS_P2;Temp;Humidity;BMP_temperature;BMP_pressure;BME280_temperature;BME280_humidity;BME280_pressure;Samples;Min_cycle;Max_cycle;Signal;HPM_P1;HPM_P2
2023/05/07 00:02:00;;;;;;;42.80;31.90;;;;;;;;;;6156644;23;20013;-85
2023/05/07 00:04:28;;;;;;;42.25;30.25;;;;;;;;;;6156201;23;20471;-84
2023/05/07 00:06:55;;;;;;;37.65;31.85;;;;;;;;;;6132335;23;20013;-85
2023/05/07 00:09:21;;;;;;;42.50;32.20;;;;;;;;;;6132231;23;20047;-85
2023/05/07 00:11:47;;;;;;;42.00;33.17;;;;;;;;;;6157341;23;20013;-85
2023/05/07 00:14:13;;;;;;;40.22;31.80;;;;;;;;;;6156708;23;20484;-85
2023/05/07 00:16:39;;;;;;;46.58;33.63;;;;;;;;;;6157001;23;20024;-84
2023/05/07 00:19:05;;;;;;;38.20;32.75;;;;;;;;;;6131632;23;20016;-84
2023/05/07 00:21:31;;;;;;;41.33;32.80;;;;;;;;;;6157234;23;20114;-84
2023/05/07 00:23:57;;;;;;;40.90;33.58;;;;;;;;;;6183433;23;20035;-84
2023/05/07 00:26:26;;;;;;;47.88;36.78;;;;;;;;;;6157276;23;20040;-85
2023/05/07 00:28:52;;;;;;;46.13;34.80;;;;;;;;;;6131902;23;20013;-84
2023/05/07 00:31:18;;;;;;;43.50;34.70;;;;;;;;;;6156918;23;20508;-83
2023/05/07 00:33:44;;;;;;;47.38;34.90;;;;;;;;;;6156271;23;20021;-84
2023/05/07 00:36:10;;;;;;;42.72;35.63;;;;;;;;;;6183348;23;20432;-84
2023/05/07 00:38:36;;;;;;;50.58;36.72;;;;;;;;;;6131959;23;20020;-84
2023/05/07 00:41:02;;;;;;;44.25;35.72;;;;;;;;;;6156610;23;20088;-84
2023/05/07 00:43:28;;;;;;;44.47;38.30;;;;;;;;;;6183220;23;20024;-83
2023/05/07 00:45:54;;;;;;;44.47;36.55;;;;;;;;;;6132099;23;20023;-84
2023/05/07 00:48:20;;;;;;;45.85;35.53;;;;;;;;;;6131202;23;20013;-84
2023/05/07 00:50:47;;;;;;;53.63;37.92;;;;;;;;;;6132015;23;20009;-83
2023/05/07 00:53:13;;;;;;;51.20;38.92;;;;;;;;;;6156509;23;20024;-84
2023/05/07 00:55:39;;;;;;;51.67;39.33;;;;;;;;;;6157117;23;20017;-84
2023/05/07 00:58:05;;;;;;;49.65;39.10;;;;;;;;;;6183164;23;20020;-83
2023/05/07 01:00:31;;;;;;;49.85;39.75;;;;;;;;;;6132135;23;20036;-84
2023/05/07 01:02:58;;;;;;;49.75;39.78;;;;;;;;;;6155764;23;20393;-84
2023/05/07 01:05:24;;;;;;;52.33;40.55;;;;;;;;;;6156380;23;20017;-84
2023/05/07 01:07:51;;;;;;;50.38;40.13;;;;;;;;;;6156720;23;20044;-83
2023/05/07 01:10:18;;;;;;;51.75;39.60;;;;;;;;;;6132460;23;20330;-84
2023/05/07 01:12:45;;;;;;;50.47;40.17;;;;;;;;;;6156585;23;20016;-84
2023/05/07 01:15:11;;;;;;;51.58;40.45;;;;;;;;;;6156527;23;20060;-84
2023/05/07 01:17:41;;;;;;;52.35;41.17;;;;;;;;;;6155919;23;20286;-84
2023/05/07 01:20:10;;;;;;;52.85;41.35;;;;;;;;;;6156864;23;20040;-84
2023/05/07 01:22:36;;;;;;;50.92;40.67;;;;;;;;;;6156741;23;20306;-84
2023/05/07 01:25:03;;;;;;;49.92;40.75;;;;;;;;;;6131898;23;20013;-84
2023/05/07 01:27:29;;;;;;;52.33;41.20;;;;;;;;;;6132120;23;20009;-83
2023/05/07 01:29:55;;;;;;;52.40;40.72;;;;;;;;;;6157080;23;20040;-84
2023/05/07 01:32:37;;;;;;;55.97;43.58;;;;;;;;;;6155985;23;20017;-84
2023/05/07 01:35:03;;;;;;;57.95;44.90;;;;;;;;;;6156618;23;20444;-83
2023/05/07 01:37:29;;;;;;;54.72;43.35;;;;;;;;;;6183299;23;20392;-84
2023/05/07 01:39:56;;;;;;;53.25;42.83;;;;;;;;;;6183210;23;20021;-84
2023/05/07 01:42:22;;;;;;;60.85;45.70;;;;;;;;;;6156477;23;20440;-84
2023/05/07 01:44:48;;;;;;;57.17;44.55;;;;;;;;;;6131814;23;20151;-83
2023/05/07 01:47:14;;;;;;;56.00;44.90;;;;;;;;;;6155632;23;20457;-84
2023/05/07 01:49:41;;;;;;;60.20;45.92;;;;;;;;;;6156730;23;20336;-84
2023/05/07 01:52:07;;;;;;;65.03;48.03;;;;;;;;;;6156311;23;20013;-84
2023/05/07 01:54:33;;;;;;;78.78;51.78;;;;;;;;;;6131516;23;20096;-84
2023/05/07 01:56:59;;;;;;;60.45;46.17;;;;;;;;;;6156344;23;20062;-84
2023/05/07 01:59:25;;;;;;;66.65;49.80;;;;;;;;;;6131910;23;20044;-83
2023/05/07 02:01:51;;;;;;;61.55;47.17;;;;;;;;;;6182393;23;20013;-83
2023/05/07 02:04:17;;;;;;;65.07;48.92;;;;;;;;;;6131781;23;20393;-83
2023/05/07 02:06:43;;;;;;;76.60;52.78;;;;;;;;;;6156184;23;20451;-83
2023/05/07 02:09:10;;;;;;;64.38;49.08;;;;;;;;;;6131737;23;20013;-84
2023/05/07 02:11:36;;;;;;;63.65;48.00;;;;;;;;;;6131960;23;20041;-84
2023/05/07 02:14:02;;;;;;;67.80;48.70;;;;;;;;;;6182258;23;20021;-84
2023/05/07 02:16:28;;;;;;;69.57;51.38;;;;;;;;;;6130935;23;20025;-83
2023/05/07 02:18:54;;;;;;;76.47;52.00;;;;;;;;;;6131744;23;20563;-84
2023/05/07 02:21:20;;;;;;;74.18;50.83;;;;;;;;;;6155905;23;20013;-84
2023/05/07 02:23:46;;;;;;;72.85;51.42;;;;;;;;;;6183954;23;20087;-83
2023/05/07 02:26:12;;;;;;;77.55;52.22;;;;;;;;;;6158139;23;20118;-83
2023/05/07 02:28:38;;;;;;;70.95;49.25;;;;;;;;;;6158024;23;20084;-83
2023/05/07 02:31:04;;;;;;;75.30;51.75;;;;;;;;;;6184761;23;20015;-83
2023/05/07 02:33:30;;;;;;;82.18;52.97;;;;;;;;;;6157988;23;20017;-83
2023/05/07 02:35:56;;;;;;;74.32;52.40;;;;;;;;;;6133317;23;20453;-83
2023/05/07 02:38:23;;;;;;;78.82;53.10;;;;;;;;;;6184517;23;20016;-83
2023/05/07 02:40:49;;;;;;;70.50;49.95;;;;;;;;;;6133432;23;20044;-84
2023/05/07 02:43:15;;;;;;;77.13;51.67;;;;;;;;;;6157269;23;20013;-83
2023/05/07 02:45:41;;;;;;;83.20;52.63;;;;;;;;;;6133324;23;20072;-84
2023/05/07 02:48:07;;;;;;;81.78;54.15;;;;;;;;;;6133593;23;20452;-84
2023/05/07 02:50:33;;;;;;;79.45;51.78;;;;;;;;;;6133348;23;20457;-84
2023/05/07 02:52:59;;;;;;;76.63;52.20;;;;;;;;;;6157881;23;20483;-84
2023/05/07 02:55:25;;;;;;;87.13;54.70;;;;;;;;;;6133400;23;20024;-84
2023/05/07 02:57:51;;;;;;;85.10;54.38;;;;;;;;;;6184046;23;20017;-83
2023/05/07 03:00:18;;;;;;;86.38;53.25;;;;;;;;;;6133035;23;20321;-83
2023/05/07 03:02:45;;;;;;;92.70;57.28;;;;;;;;;;6157487;23;20021;-84
2023/05/07 03:05:11;;;;;;;89.47;54.83;;;;;;;;;;6184435;23;20020;-84
2023/05/07 03:07:38;;;;;;;91.03;55.20;;;;;;;;;;6184566;23;20293;-84
2023/05/07 03:10:05;;;;;;;88.15;56.55;;;;;;;;;;6157706;23;20017;-83
2023/05/07 03:12:31;;;;;;;83.05;53.97;;;;;;;;;;6132872;23;20427;-84
2023/05/07 03:14:57;;;;;;;82.65;53.67;;;;;;;;;;6157470;23;20035;-83
2023/05/07 03:17:23;;;;;;;88.15;55.35;;;;;;;;;;6184437;23;20087;-84
2023/05/07 03:19:49;;;;;;;84.78;55.78;;;;;;;;;;6158250;23;20371;-84
2023/05/07 03:22:15;;;;;;;93.70;58.03;;;;;;;;;;6157918;23;20020;-83
2023/05/07 03:24:41;;;;;;;77.28;54.55;;;;;;;;;;6157620;23;20013;-84
2023/05/07 03:27:07;;;;;;;80.60;53.03;;;;;;;;;;6157445;23;20015;-84
2023/05/07 03:29:33;;;;;;;94.35;57.47;;;;;;;;;;6184135;23;20013;-84
2023/05/07 03:31:59;;;;;;;88.25;53.55;;;;;;;;;;6132933;23;20715;-84
2023/05/07 03:34:25;;;;;;;81.05;53.03;;;;;;;;;;6184182;23;20064;-84
2023/05/07 03:36:51;;;;;;;78.30;53.70;;;;;;;;;;6157613;23;20020;-84
2023/05/07 03:39:17;;;;;;;77.75;53.65;;;;;;;;;;6157389;23;20013;-83
2023/05/07 03:41:43;;;;;;;77.07;54.90;;;;;;;;;;6157108;23;20017;-84
2023/05/07 03:44:09;;;;;;;81.90;53.53;;;;;;;;;;6132750;23;20345;-84
2023/05/07 03:46:35;;;;;;;81.75;53.28;;;;;;;;;;6184026;23;20013;-83
2023/05/07 03:49:01;;;;;;;83.90;55.20;;;;;;;;;;6157124;23;20095;-84
2023/05/07 03:51:27;;;;;;;81.80;54.55;;;;;;;;;;6157168;23;20466;-84
2023/05/07 03:53:53;;;;;;;83.57;55.35;;;;;;;;;;6132623;23;20017;-84
2023/05/07 03:56:20;;;;;;;83.35;55.00;;;;;;;;;;6132238;23;20024;-84
2023/05/07 03:58:47;;;;;;;84.55;55.97;;;;;;;;;;6132590;23;20448;-83
2023/05/07 04:01:13;;;;;;;93.45;58.30;;;;;;;;;;6157116;23;20028;-84
2023/05/07 04:03:39;;;;;;;91.70;56.38;;;;;;;;;;6132482;23;20022;-83
2023/05/07 04:06:05;;;;;;;74.72;53.20;;;;;;;;;;6132666;23;20048;-83
2023/05/07 04:08:31;;;;;;;82.15;55.05;;;;;;;;;;6157544;23;20319;-84
2023/05/07 04:10:58;;;;;;;70.15;51.13;;;;;;;;;;6132311;23;20009;-84
2023/05/07 04:13:25;;;;;;;71.70;51.28;;;;;;;;;;6156898;23;20013;-84
2023/05/07 04:15:51;;;;;;;78.25;53.78;;;;;;;;;;6157262;23;20029;-84
2023/05/07 04:18:17;;;;;;;80.20;54.55;;;;;;;;;;6157373;23;20013;-83
2023/05/07 04:20:43;;;;;;;73.15;51.97;;;;;;;;;;6183924;23;20055;-84
2023/05/07 04:23:09;;;;;;;70.00;50.70;;;;;;;;;;6157163;23;20017;-84
2023/05/07 04:25:35;;;;;;;71.95;49.83;;;;;;;;;;6157026;23;20254;-83
2023/05/07 04:28:01;;;;;;;73.80;51.78;;;;;;;;;;6132389;23;20013;-84
2023/05/07 04:30:27;;;;;;;81.20;53.17;;;;;;;;;;6183329;23;20013;-84
2023/05/07 04:32:53;;;;;;;67.63;49.90;;;;;;;;;;6156833;23;20445;-83
2023/05/07 04:35:19;;;;;;;74.07;50.95;;;;;;;;;;6132360;23;20344;-83
2023/05/07 04:37:45;;;;;;;72.38;51.83;;;;;;;;;;6132029;23;20013;-84
2023/05/07 04:40:11;;;;;;;64.82;49.28;;;;;;;;;;6156257;23;20344;-83
2023/05/07 04:42:37;;;;;;;68.88;51.63;;;;;;;;;;6156775;23;20405;-84
2023/05/07 04:45:04;;;;;;;73.32;51.67;;;;;;;;;;6183362;23;20044;-83
2023/05/07 04:47:30;;;;;;;61.08;47.55;;;;;;;;;;6132020;23;20013;-83
2023/05/07 04:49:57;;;;;;;63.08;47.67;;;;;;;;;;6132187;23;20048;-84
2023/05/07 04:52:23;;;;;;;61.17;47.38;;;;;;;;;;6156507;23;20031;-83
2023/05/07 04:54:49;;;;;;;60.53;47.20;;;;;;;;;;6131408;23;20017;-84
2023/05/07 04:57:16;;;;;;;64.93;46.25;;;;;;;;;;6132165;23;20017;-83
2023/05/07 04:59:42;;;;;;;71.43;50.15;;;;;;;;;;6183232;23;20009;-84
2023/05/07 05:02:10;;;;;;;57.42;46.45;;;;;;;;;;6156889;23;20020;-84
2023/05/07 05:04:36;;;;;;;57.35;44.47;;;;;;;;;;6132009;23;20013;-84
2023/05/07 05:07:06;;;;;;;60.95;45.75;;;;;;;;;;6156334;23;20018;-84
2023/05/07 05:09:32;;;;;;;54.88;44.15;;;;;;;;;;6155595;23;20016;-84
2023/05/07 05:11:58;;;;;;;54.63;44.03;;;;;;;;;;6131985;23;20393;-84
2023/05/07 05:14:24;;;;;;;54.88;44.65;;;;;;;;;;6182868;23;20025;-83
2023/05/07 05:16:50;;;;;;;58.05;45.13;;;;;;;;;;6156538;23;20027;-84
2023/05/07 05:19:16;;;;;;;59.65;44.45;;;;;;;;;;6156734;23;20108;-84
2023/05/07 05:21:42;;;;;;;57.30;43.70;;;;;;;;;;6182373;23;20374;-84
2023/05/07 05:24:08;;;;;;;54.55;42.42;;;;;;;;;;6181968;23;20017;-84
2023/05/07 05:26:34;;;;;;;55.50;45.55;;;;;;;;;;6156477;23;20024;-84
2023/05/07 05:29:00;;;;;;;56.78;43.17;;;;;;;;;;6131830;23;20009;-82
2023/05/07 05:31:26;;;;;;;47.95;40.72;;;;;;;;;;6182414;23;20087;-82
2023/05/07 05:33:52;;;;;;;54.47;42.47;;;;;;;;;;6156559;23;20021;-85
2023/05/07 05:36:18;;;;;;;53.08;40.75;;;;;;;;;;6182680;23;20032;-84
2023/05/07 05:38:44;;;;;;;52.13;42.67;;;;;;;;;;6155782;23;20021;-83
2023/05/07 05:41:10;;;;;;;55.30;43.88;;;;;;;;;;6156208;23;20096;-83
2023/05/07 05:43:36;;;;;;;53.97;42.13;;;;;;;;;;6182665;23;20301;-83
2023/05/07 05:46:04;;;;;;;47.13;39.40;;;;;;;;;;6131540;23;20020;-82
2023/05/07 05:48:30;;;;;;;54.38;42.33;;;;;;;;;;6155933;23;20448;-83
2023/05/07 05:50:56;;;;;;;54.28;42.70;;;;;;;;;;6182302;23;20017;-82
2023/05/07 05:53:22;;;;;;;45.75;39.78;;;;;;;;;;6130963;23;20017;-84
2023/05/07 05:55:48;;;;;;;46.30;40.45;;;;;;;;;;6131561;23;20049;-82
2023/05/07 05:58:15;;;;;;;47.22;39.25;;;;;;;;;;6159479;23;20032;-83
2023/05/07 06:00:41;;;;;;;42.75;36.08;;;;;;;;;;6160477;23;20031;-82
2023/05/07 06:03:07;;;;;;;43.13;37.00;;;;;;;;;;6136061;23;20017;-82
2023/05/07 06:05:33;;;;;;;44.17;38.85;;;;;;;;;;6188522;23;20095;-82
2023/05/07 06:07:59;;;;;;;43.88;37.15;;;;;;;;;;6187376;23;20009;-82
2023/05/07 06:10:26;;;;;;;42.28;37.65;;;;;;;;;;6159715;23;20045;-83
2023/05/07 06:12:52;;;;;;;43.45;37.05;;;;;;;;;;6184969;23;20063;-83
2023/05/07 06:15:18;;;;;;;44.95;37.55;;;;;;;;;;6184296;23;20021;-83
2023/05/07 06:17:44;;;;;;;44.85;38.10;;;;;;;;;;6157807;23;20116;-83
2023/05/07 06:20:11;;;;;;;45.03;35.83;;;;;;;;;;6133485;23;20017;-82
2023/05/07 06:22:36;;;;;;;40.17;35.63;;;;;;;;;;6157271;23;20013;-83
2023/05/07 06:25:03;;;;;;;46.85;38.20;;;;;;;;;;6158448;23;20444;-83
2023/05/07 06:27:29;;;;;;;41.83;34.97;;;;;;;;;;6133861;23;20013;-84
2023/05/07 06:29:55;;;;;;;40.10;35.53;;;;;;;;;;6133166;23;20047;-84
2023/05/07 06:32:21;;;;;;;40.15;34.13;;;;;;;;;;6157951;23;20012;-82
2023/05/07 06:34:47;;;;;;;38.72;34.58;;;;;;;;;;6157506;23;20012;-84
2023/05/07 06:37:13;;;;;;;38.83;34.08;;;;;;;;;;6132708;23;20156;-84
2023/05/07 06:39:39;;;;;;;40.13;34.13;;;;;;;;;;6157700;23;20033;-84
2023/05/07 06:42:05;;;;;;;38.72;32.38;;;;;;;;;;6133447;23;20075;-84
2023/05/07 06:44:31;;;;;;;37.20;32.53;;;;;;;;;;6157855;23;20074;-85
2023/05/07 06:46:58;;;;;;;37.15;32.85;;;;;;;;;;6158024;23;20108;-84
2023/05/07 06:49:24;;;;;;;40.05;34.30;;;;;;;;;;6157875;23;20017;-84
2023/05/07 06:51:50;;;;;;;39.30;34.08;;;;;;;;;;6184010;23;20424;-84
2023/05/07 06:54:16;;;;;;;39.28;32.97;;;;;;;;;;6157727;23;20019;-84
2023/05/07 06:56:42;;;;;;;38.58;33.05;;;;;;;;;;6133214;23;20017;-84
2023/05/07 06:59:08;;;;;;;41.85;32.50;;;;;;;;;;6184368;23;20091;-84
2023/05/07 07:01:34;;;;;;;41.10;32.92;;;;;;;;;;6183838;23;20017;-84
2023/05/07 07:04:00;;;;;;;39.05;32.50;;;;;;;;;;6184077;23;20435;-84
2023/05/07 07:06:26;;;;;;;37.65;31.90;;;;;;;;;;6132180;23;20045;-84
2023/05/07 07:08:52;;;;;;;42.78;33.20;;;;;;;;;;6132858;23;20092;-84
2023/05/07 07:11:18;;;;;;;41.60;34.88;;;;;;;;;;6157527;23;20044;-84
2023/05/07 07:13:45;;;;;;;43.40;33.13;;;;;;;;;;6157196;23;20025;-84
2023/05/07 07:16:11;;;;;;;41.28;32.75;;;;;;;;;;6157954;23;20021;-84
2023/05/07 07:18:37;;;;;;;37.45;32.72;;;;;;;;;;6156656;23;20052;-84
2023/05/07 07:21:03;;;;;;;39.92;33.47;;;;;;;;;;6157451;23;20013;-84
2023/05/07 07:23:29;;;;;;;36.28;32.13;;;;;;;;;;6157591;23;20013;-84
2023/05/07 07:25:55;;;;;;;36.90;31.90;;;;;;;;;;6132728;23;20356;-84
2023/05/07 07:28:24;;;;;;;39.20;32.53;;;;;;;;;;6157203;23;20017;-84
2023/05/07 07:30:50;;;;;;;38.78;33.47;;;;;;;;;;6157123;23;20017;-84
2023/05/07 07:33:16;;;;;;;36.17;32.40;;;;;;;;;;6156986;23;20013;-84
2023/05/07 07:35:43;;;;;;;38.20;32.33;;;;;;;;;;6157285;23;20055;-84
2023/05/07 07:38:09;;;;;;;36.03;31.98;;;;;;;;;;6183856;23;20017;-84
2023/05/07 07:40:35;;;;;;;37.65;30.90;;;;;;;;;;6157517;23;20024;-85
2023/05/07 07:43:01;;;;;;;36.20;30.70;;;;;;;;;;6183941;23;20093;-84
2023/05/07 07:45:27;;;;;;;35.00;31.30;;;;;;;;;;6183953;23;20067;-84
2023/05/07 07:47:53;;;;;;;36.65;32.47;;;;;;;;;;6131486;23;20317;-84
2023/05/07 07:50:19;;;;;;;35.10;31.30;;;;;;;;;;6132612;23;20013;-84
2023/05/07 07:52:45;;;;;;;35.97;30.92;;;;;;;;;;6157387;23;20048;-84
2023/05/07 07:55:12;;;;;;;37.60;32.33;;;;;;;;;;6156916;23;20420;-84
2023/05/07 07:57:38;;;;;;;37.25;31.15;;;;;;;;;;6157171;23;20113;-84
2023/05/07 08:00:06;;;;;;;33.85;30.15;;;;;;;;;;6157249;23;20040;-84
2023/05/07 08:02:32;;;;;;;35.70;30.38;;;;;;;;;;6156453;23;20047;-84
2023/05/07 08:04:58;;;;;;;35.90;30.85;;;;;;;;;;6132200;23;20017;-84
2023/05/07 08:07:24;;;;;;;35.95;30.13;;;;;;;;;;6157185;23;20063;-85
2023/05/07 08:09:50;;;;;;;37.90;28.60;;;;;;;;;;6157312;23;20110;-84
2023/05/07 08:12:16;;;;;;;35.55;30.13;;;;;;;;;;6183566;23;20012;-84
2023/05/07 08:14:42;;;;;;;32.90;28.63;;;;;;;;;;6132032;23;20102;-84
2023/05/07 08:17:10;;;;;;;32.35;28.63;;;;;;;;;;6131469;23;20013;-84
2023/05/07 08:19:36;;;;;;;33.40;29.60;;;;;;;;;;6132164;23;20024;-84
2023/05/07 08:22:02;;;;;;;32.58;28.80;;;;;;;;;;6156827;23;20092;-84
2023/05/07 08:24:28;;;;;;;33.15;28.58;;;;;;;;;;6131901;23;20017;-84
2023/05/07 08:26:54;;;;;;;34.65;30.85;;;;;;;;;;6132055;23;20082;-84
2023/05/07 08:29:20;;;;;;;35.05;31.25;;;;;;;;;;6132008;23;20009;-84
2023/05/07 08:31:46;;;;;;;32.58;28.17;;;;;;;;;;6131902;23;20105;-84
2023/05/07 08:34:12;;;;;;;33.30;26.60;;;;;;;;;;6156914;23;20076;-84
2023/05/07 08:36:38;;;;;;;29.83;26.70;;;;;;;;;;6131891;23;20013;-84
2023/05/07 08:39:05;;;;;;;29.25;25.42;;;;;;;;;;6156588;23;20511;-84
2023/05/07 08:41:31;;;;;;;32.13;27.33;;;;;;;;;;6182952;23;20045;-84
2023/05/07 08:43:59;;;;;;;30.35;26.73;;;;;;;;;;6132027;23;20017;-84
2023/05/07 08:46:25;;;;;;;29.40;26.20;;;;;;;;;;6131252;23;20009;-85
2023/05/07 08:48:52;;;;;;;30.58;26.83;;;;;;;;;;6156902;23;20013;-85
2023/05/07 08:51:19;;;;;;;28.90;25.63;;;;;;;;;;6131868;23;20020;-84
2023/05/07 08:53:45;;;;;;;29.05;25.88;;;;;;;;;;6131903;23;20452;-84
2023/05/07 08:56:12;;;;;;;27.80;24.85;;;;;;;;;;6131803;23;20024;-84
2023/05/07 08:58:38;;;;;;;27.70;24.70;;;;;;;;;;6183301;23;20091;-84
2023/05/07 09:01:07;;;;;;;26.30;23.50;;;;;;;;;;6156067;23;20017;-85
2023/05/07 09:03:33;;;;;;;26.75;23.73;;;;;;;;;;6156327;23;20028;-84
2023/05/07 09:05:59;;;;;;;27.85;24.85;;;;;;;;;;6131549;23;20392;-85
2023/05/07 09:08:27;;;;;;;26.85;23.98;;;;;;;;;;6156495;23;20013;-85
2023/05/07 09:10:53;;;;;;;27.38;24.33;;;;;;;;;;6131856;23;20009;-85
2023/05/07 09:13:19;;;;;;;29.45;25.60;;;;;;;;;;6131488;23;20120;-81
2023/05/07 09:15:45;;;;;;;25.27;22.58;;;;;;;;;;6131191;23;20017;-82
2023/05/07 09:18:12;;;;;;;25.05;22.35;;;;;;;;;;6131545;23;20095;-82
2023/05/07 09:20:38;;;;;;;26.67;23.60;;;;;;;;;;6156212;23;20013;-81
2023/05/07 09:23:04;;;;;;;26.45;23.63;;;;;;;;;;6155647;23;20013;-82
2023/05/07 09:25:31;;;;;;;28.50;23.52;;;;;;;;;;6182901;23;20016;-83
2023/05/07 09:27:58;;;;;;;26.10;23.40;;;;;;;;;;6131879;23;20020;-83
2023/05/07 09:30:27;;;;;;;26.80;23.88;;;;;;;;;;6131031;23;20021;-83
2023/05/07 09:32:54;;;;;;;24.73;22.02;;;;;;;;;;6182581;23;20028;-82
2023/05/07 09:35:21;;;;;;;23.85;21.33;;;;;;;;;;6156264;23;20017;-84
2023/05/07 09:37:47;;;;;;;27.35;22.88;;;;;;;;;;6156280;23;20017;-84
2023/05/07 09:40:22;;;;;;;25.00;22.40;;;;;;;;;;6130982;23;20072;-84
2023/05/07 09:42:49;;;;;;;26.42;22.15;;;;;;;;;;6155977;23;20021;-85
2023/05/07 09:45:16;;;;;;;25.50;22.48;;;;;;;;;;6130238;23;20337;-83
2023/05/07 09:47:47;;;;;;;23.92;21.38;;;;;;;;;;6131683;23;20017;-85
2023/05/07 09:50:15;;;;;;;24.15;21.63;;;;;;;;;;6182644;23;20013;-83
2023/05/07 09:52:41;;;;;;;24.15;21.58;;;;;;;;;;6131121;23;20013;-84
2023/05/07 09:55:07;;;;;;;24.15;20.83;;;;;;;;;;6182267;23;20063;-85
2023/05/07 09:57:35;;;;;;;24.23;21.17;;;;;;;;;;6155634;23;20028;-85
2023/05/07 10:00:04;;;;;;;23.48;20.98;;;;;;;;;;6181892;23;20017;-85
2023/05/07 10:02:30;;;;;;;24.73;22.08;;;;;;;;;;6155709;23;20092;-85
2023/05/07 10:04:57;;;;;;;23.80;21.17;;;;;;;;;;6154461;23;20013;-83
2023/05/07 10:07:23;;;;;;;24.13;20.30;;;;;;;;;;6154214;23;20440;-84
2023/05/07 10:09:50;;;;;;;23.25;20.17;;;;;;;;;;6155238;23;20009;-84
2023/05/07 10:12:17;;;;;;;22.17;19.85;;;;;;;;;;6155373;23;20013;-84
2023/05/07 10:14:43;;;;;;;23.38;20.63;;;;;;;;;;6149337;23;20349;-85
2023/05/07 10:17:12;;;;;;;22.88;20.48;;;;;;;;;;6125916;23;20022;-83
2023/05/07 10:19:40;;;;;;;22.65;19.77;;;;;;;;;;6150656;23;20456;-83
2023/05/07 10:22:06;;;;;;;23.70;21.20;;;;;;;;;;6150615;23;20096;-83
2023/05/07 10:24:33;;;;;;;23.00;20.00;;;;;;;;;;6125769;23;20017;-84
2023/05/07 10:27:01;;;;;;;22.50;20.13;;;;;;;;;;6152363;23;20025;-84
2023/05/07 10:29:27;;;;;;;21.33;19.08;;;;;;;;;;6150121;23;20095;-84
2023/05/07 10:32:08;;;;;;;23.45;20.38;;;;;;;;;;6150344;23;20017;-83
2023/05/07 10:34:36;;;;;;;22.50;19.38;;;;;;;;;;6150883;23;20096;-83
2023/05/07 10:37:04;;;;;;;30.35;19.88;;;;;;;;;;6154334;23;20017;-83
2023/05/07 10:39:30;;;;;;;20.83;18.63;;;;;;;;;;6128297;23;20080;-83
2023/05/07 10:41:56;;;;;;;22.42;20.10;;;;;;;;;;6151315;23;20049;-82
2023/05/07 10:44:29;;;;;;;21.08;18.88;;;;;;;;;;6153053;23;20036;-82
2023/05/07 10:47:08;;;;;;;21.30;19.02;;;;;;;;;;6130463;23;20363;-83
2023/05/07 10:49:34;;;;;;;21.45;17.38;;;;;;;;;;6129695;23;20282;-84
2023/05/07 10:52:14;;;;;;;20.35;18.25;;;;;;;;;;6129325;23;20097;-83
2023/05/07 10:54:40;;;;;;;20.05;17.98;;;;;;;;;;6129207;23;20020;-82
2023/05/07 10:57:39;;;;;;;20.48;18.27;;;;;;;;;;6153062;23;20035;-83
2023/05/07 11:00:25;;;;;;;20.05;17.73;;;;;;;;;;6120717;23;20360;-82
2023/05/07 11:03:00;;;;;;;20.20;18.05;;;;;;;;;;6128726;23;20020;-83
2023/05/07 11:05:30;;;;;;;20.45;18.10;;;;;;;;;;6129441;23;20088;-83
2023/05/07 11:07:57;;;;;;;20.17;18.00;;;;;;;;;;6129372;23;20407;-83
2023/05/07 11:10:23;;;;;;;19.90;17.73;;;;;;;;;;6153758;23;20041;-82
2023/05/07 11:12:50;;;;;;;18.48;16.58;;;;;;;;;;6153671;23;20072;-82
2023/05/07 11:15:34;;;;;;;20.30;18.17;;;;;;;;;;6153773;23;20452;-82
2023/05/07 11:18:00;;;;;;;;;;;;;;;;;;6129801;23;20068;-83
2023/05/07 11:20:45;;;;;;;21.02;18.30;;;;;;;;;;6157472;23;19913;-83
2023/05/07 11:23:50;;;;;;;19.58;17.55;;;;;;;;;;6158674;23;20044;-82
2023/05/07 11:26:16;;;;;;;20.35;18.35;;;;;;;;;;6154415;23;20084;-82
2023/05/07 11:28:43;;;;;;;20.25;18.25;;;;;;;;;;6153184;23;20017;-81
2023/05/07 11:31:10;;;;;;;20.55;18.48;;;;;;;;;;6153265;23;20088;-82
2023/05/07 11:33:36;;;;;;;21.00;18.80;;;;;;;;;;6153473;23;20020;-83
2023/05/07 11:36:03;;;;;;;19.25;17.30;;;;;;;;;;6153887;23;20013;-83
2023/05/07 11:38:30;;;;;;;18.98;16.85;;;;;;;;;;6156660;23;20020;-83
2023/05/07 11:41:04;;;;;;;19.90;17.90;;;;;;;;;;6153648;23;20025;-84
2023/05/07 11:43:31;;;;;;;18.38;16.58;;;;;;;;;;6155718;23;20433;-82
2023/05/07 11:46:05;;;;;;;19.40;17.40;;;;;;;;;;6129113;23;20017;-82
2023/05/07 11:48:32;;;;;;;20.08;18.08;;;;;;;;;;6128877;23;20016;-83
2023/05/07 11:51:02;;;;;;;20.38;18.38;;;;;;;;;;6155694;23;20068;-86
2023/05/07 11:53:35;;;;;;;19.88;17.90;;;;;;;;;;6131477;23;20022;-86
2023/05/07 11:56:06;;;;;;;19.33;17.42;;;;;;;;;;6157754;23;20021;-85
2023/05/07 11:58:32;;;;;;;18.67;16.77;;;;;;;;;;6157169;23;20088;-86
2023/05/07 12:00:58;;;;;;;19.55;17.65;;;;;;;;;;6157781;23;20017;-84
2023/05/07 12:03:24;;;;;;;20.13;18.10;;;;;;;;;;6158254;23;20099;-86
2023/05/07 12:05:50;;;;;;;18.83;17.02;;;;;;;;;;6132265;23;20362;-86
2023/05/07 12:08:16;;;;;;;19.17;17.35;;;;;;;;;;6132266;23;20100;-86
2023/05/07 12:10:43;;;;;;;19.70;17.70;;;;;;;;;;6156186;23;20061;-83
2023/05/07 12:13:15;;;;;;;18.90;17.10;;;;;;;;;;6158387;23;20045;-85
2023/05/07 12:15:42;;;;;;;19.40;17.52;;;;;;;;;;6185729;23;20078;-84
2023/05/07 12:18:08;;;;;;;18.70;16.80;;;;;;;;;;6161043;23;20077;-85
2023/05/07 12:20:35;;;;;;;18.88;16.98;;;;;;;;;;6135122;23;20071;-86
2023/05/07 12:23:02;;;;;;;19.67;17.70;;;;;;;;;;6160704;23;20415;-85
2023/05/07 12:25:31;;;;;;;19.70;17.75;;;;;;;;;;6160553;23;20017;-85
2023/05/07 12:27:58;;;;;;;19.52;17.73;;;;;;;;;;6136033;23;20013;-83
2023/05/07 12:30:25;;;;;;;20.08;18.13;;;;;;;;;;6159568;23;20381;-83
2023/05/07 12:32:54;;;;;;;17.95;16.15;;;;;;;;;;6157566;23;20017;-83
2023/05/07 12:35:30;;;;;;;18.60;16.85;;;;;;;;;;6132550;23;20013;-83
2023/05/07 12:37:58;;;;;;;18.52;16.75;;;;;;;;;;6156489;23;20074;-83
2023/05/07 12:40:25;;;;;;;18.80;16.90;;;;;;;;;;6184598;23;20353;-82
2023/05/07 12:42:56;;;;;;;19.08;17.20;;;;;;;;;;6132886;23;20444;-82
2023/05/07 12:45:22;;;;;;;19.33;17.33;;;;;;;;;;6131163;23;20017;-81
2023/05/07 12:47:48;;;;;;;18.83;17.02;;;;;;;;;;6157057;23;20084;-82
2023/05/07 12:50:15;;;;;;;18.20;16.50;;;;;;;;;;6157391;23;20021;-83
2023/05/07 12:52:41;;;;;;;19.77;17.77;;;;;;;;;;6156484;23;20104;-83
2023/05/07 12:55:07;;;;;;;19.70;16.63;;;;;;;;;;6157107;23;20016;-83
2023/05/07 12:57:40;;;;;;;19.15;17.33;;;;;;;;;;6181628;23;20017;-84
2023/05/07 13:00:06;;;;;;;17.63;15.93;;;;;;;;;;6181855;23;20017;-84
2023/05/07 13:02:40;;;;;;;18.42;16.52;;;;;;;;;;6154859;23;20013;-84
2023/05/07 13:05:06;;;;;;;;;;;;;;;;;;6181618;23;20385;-83
2023/05/07 13:07:32;;;;;;;17.98;16.13;;;;;;;;;;6180970;23;20012;-83
2023/05/07 13:09:58;;;;;;;18.23;16.35;;;;;;;;;;6181807;23;20009;-83
2023/05/07 13:12:24;;;;;;;18.52;16.73;;;;;;;;;;6130267;23;20045;-83
2023/05/07 13:14:50;;;;;;;18.05;16.35;;;;;;;;;;6180843;23;20013;-82
2023/05/07 13:17:16;;;;;;;17.75;16.05;;;;;;;;;;6154737;23;20017;-83
2023/05/07 13:19:42;;;;;;;18.45;16.65;;;;;;;;;;6154778;23;20052;-83
2023/05/07 13:22:08;;;;;;;18.33;16.52;;;;;;;;;;6181014;23;20016;-84
2023/05/07 13:24:34;;;;;;;17.52;15.77;;;;;;;;;;6180575;23;20013;-84
2023/05/07 13:27:00;;;;;;;18.27;16.48;;;;;;;;;;6154848;23;20414;-84
2023/05/07 13:29:29;;;;;;;16.98;15.27;;;;;;;;;;6182240;23;20009;-86
2023/05/07 13:31:56;;;;;;;17.45;15.70;;;;;;;;;;6155290;23;20009;-85
2023/05/07 13:34:22;;;;;;;18.55;16.85;;;;;;;;;;6154524;23;20151;-85
2023/05/07 13:36:48;;;;;;;17.38;15.60;;;;;;;;;;6151685;23;20445;-85
2023/05/07 13:39:15;;;;;;;17.38;15.75;;;;;;;;;;6152798;23;20021;-87
2023/05/07 13:41:41;;;;;;;18.25;16.50;;;;;;;;;;6154353;23;20068;-86
2023/05/07 13:44:07;;;;;;;17.65;15.90;;;;;;;;;;6180692;23;20009;-86
2023/05/07 13:46:33;;;;;;;17.75;15.95;;;;;;;;;;6130029;23;20488;-86
2023/05/07 13:48:59;;;;;;;16.02;14.52;;;;;;;;;;6155819;23;20013;-88
2023/05/07 13:51:25;;;;;;;17.73;15.77;;;;;;;;;;6129807;23;20076;-88
2023/05/07 13:53:54;;;;;;;16.88;15.18;;;;;;;;;;6181424;23;20108;-86
2023/05/07 13:56:21;;;;;;;17.13;15.43;;;;;;;;;;6154299;23;20020;-84
2023/05/07 13:58:47;;;;;;;18.20;16.40;;;;;;;;;;6154688;23;20444;-86
2023/05/07 14:01:13;;;;;;;14.25;12.85;;;;;;;;;;6130499;23;20267;-87
2023/05/07 14:03:39;;;;;;;17.70;15.82;;;;;;;;;;6155568;23;20013;-85
2023/05/07 14:06:05;;;;;;;17.02;15.35;;;;;;;;;;6153772;23;20013;-86
2023/05/07 14:08:31;;;;;;;15.95;14.35;;;;;;;;;;6128869;23;20450;-85
2023/05/07 14:10:57;;;;;;;16.92;15.25;;;;;;;;;;6129928;23;20013;-85
2023/05/07 14:13:23;;;;;;;16.88;15.27;;;;;;;;;;6154550;23;20332;-82
2023/05/07 14:15:49;;;;;;;16.38;14.85;;;;;;;;;;6126644;23;20049;-82
2023/05/07 14:18:16;;;;;;;15.73;14.30;;;;;;;;;;6128577;23;20071;-85